createdAt,value
2023-02-01T00:00:17.180Z,8.85
2023-02-01T00:02:43.783Z,8.41
2023-02-01T00:05:11.348Z,9.06
2023-02-01T00:07:38.549Z,8.62
2023-02-01T00:10:06.751Z,8.08
2023-02-01T00:12:34.079Z,8.85
2023-02-01T00:15:00.647Z,8.28
2023-02-01T00:17:27.268Z,8.86
2023-02-01T00:19:53.803Z,8.20
2023-02-01T00:22:20.374Z,7.98
2023-02-01T00:24:46.937Z,8.62
2023-02-01T00:27:18.440Z,8.28
2023-02-01T00:29:45.989Z,8.11
2023-02-01T00:32:13.208Z,9.17
2023-02-01T00:34:39.899Z,8.65
2023-02-01T00:37:06.522Z,9.13
2023-02-01T00:39:33.061Z,9.10
2023-02-01T00:42:02.841Z,9.43
2023-02-01T00:44:33.908Z,8.85
2023-02-01T00:47:01.320Z,8.09
2023-02-01T00:49:28.798Z,8.77
2023-02-01T00:51:55.456Z,8.48
2023-02-01T00:54:21.983Z,9.21
2023-02-01T00:56:48.514Z,9.56
2023-02-01T00:59:15.086Z,9.47
2023-02-01T01:01:41.762Z,9.28
2023-02-01T01:04:08.368Z,9.87
2023-02-01T01:06:35.739Z,9.41
2023-02-01T01:09:06.058Z,9.74
2023-02-01T01:11:36.097Z,8.89
2023-02-01T01:14:04.381Z,8.70
2023-02-01T01:16:33.025Z,9.42
2023-02-01T01:19:00.631Z,9.15
2023-02-01T01:21:28.536Z,9.06
2023-02-01T01:23:55.084Z,9.31
2023-02-01T01:26:27.648Z,9.77
2023-02-01T01:28:57.411Z,9.60
2023-02-01T01:31:25.060Z,9.49
2023-02-01T01:33:54.894Z,9.10
2023-02-01T01:36:22.857Z,9.01
2023-02-01T01:38:49.950Z,9.26
2023-02-01T01:41:21.379Z,9.07
2023-02-01T01:43:55.623Z,9.14
2023-02-01T01:46:31.037Z,9.18
2023-02-01T01:49:25.044Z,8.68
2023-02-01T01:52:00.072Z,10.19
2023-02-01T01:54:32.463Z,9.74
2023-02-01T01:57:05.623Z,9.69
2023-02-01T01:59:36.875Z,9.19
2023-02-01T02:02:04.888Z,9.45
2023-02-01T02:04:34.117Z,9.18
2023-02-01T02:07:11.159Z,8.76
2023-02-01T02:09:38.588Z,8.81
2023-02-01T02:12:06.333Z,8.66
2023-02-01T02:14:35.007Z,10.53
2023-02-01T02:17:13.477Z,9.36
2023-02-01T02:20:10.918Z,9.16
2023-02-01T02:22:43.613Z,9.38
2023-02-01T02:25:32.026Z,9.70
2023-02-01T02:28:29.398Z,10.00
2023-02-01T02:30:56.063Z,9.99
2023-02-01T02:33:41.271Z,10.68
2023-02-01T02:36:33.975Z,9.92
2023-02-01T02:39:36.888Z,9.67
2023-02-01T02:42:47.076Z,10.36
2023-02-01T02:45:37.040Z,9.73
2023-02-01T02:48:21.165Z,9.68
2023-02-01T02:51:20.641Z,9.97
2023-02-01T02:54:21.268Z,10.50
2023-02-01T02:57:09.387Z,11.22
2023-02-01T02:59:56.993Z,11.44
2023-02-01T03:02:42.328Z,11.07
2023-02-01T03:05:08.935Z,10.60
2023-02-01T03:07:56.174Z,10.15
2023-02-01T03:10:58.655Z,11.57
2023-02-01T03:13:57.367Z,9.61
2023-02-01T03:16:42.364Z,9.85
2023-02-01T03:19:20.724Z,10.40
2023-02-01T03:22:04.770Z,9.37
2023-02-01T03:24:38.705Z,10.58
2023-02-01T03:27:22.542Z,10.05
2023-02-01T03:29:55.990Z,9.92
2023-02-01T03:32:23.553Z,9.56
2023-02-01T03:34:52.095Z,9.54
2023-02-01T03:37:27.278Z,9.91
2023-02-01T03:40:12.541Z,8.98
2023-02-01T03:42:46.024Z,9.67
2023-02-01T03:45:30.984Z,9.65
2023-02-01T03:48:01.376Z,10.37
2023-02-01T03:50:31.131Z,10.04
2023-02-01T03:53:00.402Z,9.96
2023-02-01T03:55:29.121Z,8.22
2023-02-01T03:58:14.830Z,9.13
2023-02-01T04:00:47.052Z,9.64
2023-02-01T04:03:13.632Z,10.38
2023-02-01T04:05:40.195Z,9.01
2023-02-01T04:08:06.761Z,9.25
2023-02-01T04:10:33.316Z,9.42
2023-02-01T04:12:59.863Z,9.37
2023-02-01T04:15:26.396Z,9.05
2023-02-01T04:17:52.915Z,9.48
2023-02-01T04:20:19.540Z,9.23
2023-02-01T04:22:46.098Z,9.68
2023-02-01T04:25:12.711Z,9.57
2023-02-01T04:30:10.470Z,10.20
2023-02-01T04:32:38.241Z,9.81
2023-02-01T04:35:06.087Z,9.69
2023-02-01T04:37:32.680Z,9.52
2023-02-01T04:39:59.321Z,9.76
2023-02-01T04:42:26.546Z,9.15
2023-02-01T04:44:53.099Z,10.44
2023-02-01T04:47:19.599Z,9.22
2023-02-01T04:49:46.150Z,8.71
2023-02-01T04:52:12.703Z,9.01
2023-02-01T04:54:39.194Z,8.47
2023-02-01T04:57:05.768Z,9.01
2023-02-01T04:59:32.353Z,8.59
2023-02-01T05:01:58.883Z,8.49
2023-02-01T05:04:25.595Z,9.17
2023-02-01T05:06:52.337Z,8.20
2023-02-01T05:09:18.869Z,8.66
2023-02-01T05:12:04.062Z,8.89
2023-02-01T05:14:30.564Z,8.68
2023-02-01T05:16:57.127Z,9.26
2023-02-01T05:19:23.789Z,8.91
2023-02-01T05:21:50.342Z,9.65
2023-02-01T05:24:21.494Z,8.84
2023-02-01T05:26:49.894Z,9.56
2023-02-01T05:29:18.207Z,9.88
2023-02-01T05:31:48.753Z,8.97
2023-02-01T05:34:16.512Z,9.21
2023-02-01T05:36:43.582Z,7.92
2023-02-01T05:39:11.091Z,7.79
2023-02-01T05:41:38.136Z,8.30
2023-02-01T05:44:04.776Z,7.87
2023-02-01T05:46:31.369Z,8.92
2023-02-01T05:48:57.925Z,9.11
2023-02-01T05:51:24.558Z,9.76
2023-02-01T05:53:51.117Z,9.20
2023-02-01T05:56:17.667Z,8.65
2023-02-01T05:58:44.409Z,9.04
2023-02-01T06:01:10.964Z,9.33
2023-02-01T06:03:37.714Z,8.84
2023-02-01T06:06:05.021Z,9.62
2023-02-01T06:08:31.537Z,9.53
2023-02-01T06:11:00.394Z,8.87
2023-02-01T06:13:27.024Z,9.35
2023-02-01T06:15:53.770Z,9.33
2023-02-01T06:18:20.380Z,8.47
2023-02-01T06:20:53.225Z,9.54
2023-02-01T06:23:19.784Z,9.26
2023-02-01T06:25:46.367Z,8.76
2023-02-01T06:28:12.880Z,9.29
2023-02-01T06:30:42.024Z,10.06
2023-02-01T06:33:08.638Z,8.74
2023-02-01T06:35:35.132Z,9.42
2023-02-01T06:38:01.686Z,10.12
2023-02-01T06:40:28.378Z,8.77
2023-02-01T06:42:54.926Z,8.65
2023-02-01T06:45:21.495Z,10.04
2023-02-01T06:47:48.004Z,8.89
2023-02-01T06:50:14.551Z,9.16
2023-02-01T06:52:41.079Z,9.06
2023-02-01T06:55:07.886Z,8.96
2023-02-01T06:57:35.341Z,8.61
2023-02-01T07:00:03.751Z,8.47
2023-02-01T07:02:30.247Z,8.63
2023-02-01T07:04:56.763Z,8.89
2023-02-01T07:07:23.559Z,8.87
2023-02-01T07:09:50.776Z,8.26
2023-02-01T07:12:17.304Z,8.35
2023-02-01T07:14:43.807Z,8.82
2023-02-01T07:17:10.382Z,8.50
2023-02-01T07:19:37.064Z,8.21
2023-02-01T07:22:03.621Z,8.45
2023-02-01T07:24:31.512Z,8.86
2023-02-01T07:26:58.004Z,8.92
2023-02-01T07:29:24.506Z,8.06
2023-02-01T07:31:51.082Z,8.26
2023-02-01T07:34:17.636Z,8.43
2023-02-01T07:36:44.180Z,8.67
2023-02-01T07:39:10.725Z,8.38
2023-02-01T07:41:37.275Z,9.08
2023-02-01T07:44:03.945Z,8.00
2023-02-01T07:46:30.607Z,8.08
2023-02-01T07:48:57.331Z,7.99
2023-02-01T07:51:24.159Z,8.61
2023-02-01T07:53:50.752Z,7.99
2023-02-01T07:56:20.316Z,8.06
2023-02-01T07:58:50.970Z,7.92
2023-02-01T08:01:21.261Z,8.77
2023-02-01T08:03:50.194Z,9.27
2023-02-01T08:06:16.822Z,8.54
2023-02-01T08:08:46.002Z,8.47
2023-02-01T08:11:12.559Z,7.68
2023-02-01T08:13:39.137Z,8.48
2023-02-01T08:16:08.164Z,8.36
2023-02-01T08:18:36.398Z,8.87
2023-02-01T08:21:11.878Z,8.53
2023-02-01T08:23:39.951Z,8.34
2023-02-01T08:26:15.321Z,8.28
2023-02-01T08:28:44.867Z,7.65
2023-02-01T08:31:15.926Z,8.33
2023-02-01T08:33:44.960Z,7.89
2023-02-01T08:36:12.368Z,8.57
2023-02-01T08:38:40.557Z,7.94
2023-02-01T08:41:09.683Z,8.33
2023-02-01T08:43:37.025Z,7.29
2023-02-01T08:46:05.509Z,7.72
2023-02-01T08:48:32.803Z,7.32
2023-02-01T08:51:04.364Z,7.76
2023-02-01T08:53:31.095Z,7.65
2023-02-01T08:55:57.656Z,7.38
2023-02-01T08:58:24.396Z,7.24
2023-02-01T09:00:51.077Z,8.12
2023-02-01T09:03:17.672Z,7.52
2023-02-01T09:05:49.783Z,7.85
2023-02-01T09:08:17.176Z,7.70
2023-02-01T09:10:43.795Z,7.54
2023-02-01T09:13:10.562Z,8.17
2023-02-01T09:15:38.258Z,8.65
2023-02-01T09:18:04.909Z,8.46
2023-02-01T09:20:31.501Z,7.82
2023-02-01T09:22:58.434Z,7.93
2023-02-01T09:25:25.294Z,7.84
2023-02-01T09:27:51.956Z,8.91
2023-02-01T09:30:18.510Z,8.03
2023-02-01T09:32:45.060Z,7.38
2023-02-01T09:35:12.348Z,7.45
2023-02-01T09:37:39.012Z,7.07
2023-02-01T09:40:06.241Z,7.12
2023-02-01T09:43:06.760Z,7.90
2023-02-01T09:45:54.387Z,6.71
2023-02-01T09:48:30.217Z,7.95
2023-02-01T09:51:00.565Z,7.40
2023-02-01T09:53:35.512Z,7.78
2023-02-01T09:56:08.430Z,7.84
2023-02-01T09:58:40.267Z,7.86
2023-02-01T10:01:20.788Z,7.88
2023-02-01T10:03:47.804Z,7.70
2023-02-01T10:07:01.923Z,7.29
2023-02-01T10:09:52.843Z,8.06
2023-02-01T10:12:57.444Z,8.01
2023-02-01T10:15:56.587Z,8.32
2023-02-01T10:18:53.542Z,8.31
2023-02-01T10:21:44.733Z,7.66
2023-02-01T10:24:18.394Z,8.02
2023-02-01T10:27:01.679Z,8.00
2023-02-01T10:29:40.068Z,8.30
2023-02-01T10:32:33.308Z,8.14
2023-02-01T10:35:03.143Z,8.22
2023-02-01T10:37:33.181Z,7.48
2023-02-01T10:40:22.904Z,7.52
2023-02-01T10:42:54.185Z,7.63
2023-02-01T10:45:25.901Z,7.66
2023-02-01T10:47:56.907Z,8.17
2023-02-01T10:50:35.421Z,7.41
2023-02-01T10:53:19.935Z,7.12
2023-02-01T10:55:46.373Z,7.33
2023-02-01T10:58:29.498Z,7.00
2023-02-01T11:01:06.758Z,7.66
2023-02-01T11:03:45.769Z,8.84
2023-02-01T11:06:31.597Z,7.53
2023-02-01T11:09:03.393Z,7.73
2023-02-01T11:11:30.202Z,8.73
2023-02-01T11:14:05.445Z,7.51
2023-02-01T11:16:37.468Z,7.75
2023-02-01T11:19:06.068Z,7.91
2023-02-01T11:21:35.057Z,8.07
2023-02-01T11:24:04.739Z,8.78
2023-02-01T11:26:33.818Z,8.88
2023-02-01T11:29:06.310Z,7.87
2023-02-01T11:31:36.066Z,6.95
2023-02-01T11:34:15.503Z,7.91
2023-02-01T11:36:43.386Z,7.88
2023-02-01T11:39:16.044Z,8.26
2023-02-01T11:42:04.717Z,8.00
2023-02-01T11:44:38.460Z,8.24
2023-02-01T11:47:32.623Z,8.70
2023-02-01T11:50:02.881Z,8.11
2023-02-01T11:52:58.066Z,7.36
2023-02-01T11:55:48.120Z,7.47
2023-02-01T11:58:32.964Z,8.18
2023-02-01T12:01:11.899Z,8.73
2023-02-01T12:03:51.172Z,9.18
2023-02-01T12:06:50.467Z,8.27
2023-02-01T12:09:22.839Z,8.63
2023-02-01T12:12:17.947Z,8.07
2023-02-01T12:15:27.590Z,9.03
2023-02-01T12:18:00.808Z,8.07
2023-02-01T12:21:04.304Z,8.65
2023-02-01T12:24:05.079Z,7.43
2023-02-01T12:26:50.220Z,6.89
2023-02-01T12:29:38.188Z,7.47
2023-02-01T12:32:21.982Z,7.66
2023-02-01T12:35:15.216Z,8.09
2023-02-01T12:38:03.795Z,9.07
2023-02-01T12:40:52.673Z,9.56
2023-02-01T12:44:00.855Z,8.06
2023-02-01T12:46:38.560Z,8.67
2023-02-01T12:49:32.194Z,8.02
2023-02-01T12:52:05.452Z,8.58
2023-02-01T12:54:44.884Z,8.08
2023-02-01T12:57:27.857Z,7.96
2023-02-01T13:00:02.067Z,7.26
2023-02-01T13:02:59.931Z,8.35
2023-02-01T13:05:51.203Z,9.30
2023-02-01T13:08:26.301Z,8.32
2023-02-01T13:11:06.966Z,8.44
2023-02-01T13:13:55.852Z,9.24
2023-02-01T13:16:33.628Z,8.52
2023-02-01T13:19:30.312Z,8.65
2023-02-01T13:22:13.021Z,8.95
2023-02-01T13:24:46.947Z,8.69
2023-02-01T13:27:18.719Z,8.10
2023-02-01T13:30:26.995Z,8.04
2023-02-01T13:33:54.446Z,7.20
2023-02-01T13:36:31.513Z,7.41
2023-02-01T13:39:21.013Z,7.93
2023-02-01T13:42:03.410Z,8.00
2023-02-01T13:44:39.284Z,7.88
2023-02-01T13:47:26.552Z,7.21
2023-02-01T13:49:57.229Z,7.03
2023-02-01T13:52:37.861Z,7.38
2023-02-01T13:55:32.358Z,7.61
2023-02-01T13:58:22.121Z,7.22
2023-02-01T14:00:52.255Z,7.74
2023-02-01T14:03:22.708Z,7.63
2023-02-01T14:05:52.211Z,7.33
2023-02-01T14:08:36.517Z,7.19
2023-02-01T14:11:03.316Z,7.99
2023-02-01T14:13:41.658Z,7.63
2023-02-01T14:16:13.113Z,7.61
2023-02-01T14:18:42.800Z,7.31
2023-02-01T14:21:33.036Z,7.76
2023-02-01T14:24:08.362Z,8.18
2023-02-01T14:26:48.686Z,7.53
2023-02-01T14:29:21.919Z,7.98
2023-02-01T14:32:07.279Z,7.86
2023-02-01T14:34:57.921Z,8.46
2023-02-01T14:37:32.865Z,9.27
2023-02-01T14:40:06.730Z,9.90
2023-02-01T14:42:42.419Z,8.93
2023-02-01T14:45:24.862Z,8.75
2023-02-01T14:48:14.735Z,8.05
2023-02-01T14:50:47.194Z,7.85
2023-02-01T14:53:13.942Z,8.51
2023-02-01T14:55:54.172Z,7.81
2023-02-01T14:58:35.851Z,7.91
2023-02-01T15:01:14.712Z,8.60
2023-02-01T15:04:04.454Z,8.68
2023-02-01T15:07:03.780Z,8.36
2023-02-01T15:09:49.181Z,8.11
2023-02-01T15:12:25.008Z,8.59
2023-02-01T15:15:19.985Z,8.47
2023-02-01T15:17:53.719Z,8.42
2023-02-01T15:20:22.278Z,9.14
2023-02-01T15:23:05.235Z,8.56
2023-02-01T15:25:36.942Z,8.44
2023-02-01T15:28:04.262Z,7.84
2023-02-01T15:30:34.425Z,7.59
2023-02-01T15:33:19.069Z,7.49
2023-02-01T15:35:47.669Z,8.05
2023-02-01T15:38:21.175Z,7.95
2023-02-01T15:41:26.947Z,8.04
2023-02-01T15:43:56.162Z,8.42
2023-02-01T15:46:31.272Z,7.85
2023-02-01T15:48:58.284Z,8.29
2023-02-01T15:51:36.487Z,8.33
2023-02-01T15:54:09.315Z,7.81
2023-02-01T15:56:42.082Z,8.09
2023-02-01T15:59:21.489Z,7.72
2023-02-01T16:01:48.764Z,7.08
2023-02-01T16:04:20.393Z,7.19
2023-02-01T16:06:52.854Z,7.96
2023-02-01T16:09:22.845Z,7.18
2023-02-01T16:12:01.759Z,7.43
2023-02-01T16:14:28.728Z,7.15
2023-02-01T16:16:58.689Z,7.41
2023-02-01T16:19:28.855Z,8.35
2023-02-01T16:21:59.777Z,7.74
2023-02-01T16:24:26.895Z,8.34
2023-02-01T16:26:53.748Z,7.08
2023-02-01T16:29:22.375Z,8.07
2023-02-01T16:31:51.158Z,7.51
2023-02-01T16:34:19.168Z,7.15
2023-02-01T16:36:52.824Z,6.60
2023-02-01T16:39:21.068Z,6.84
2023-02-01T16:41:48.349Z,7.12
2023-02-01T16:44:14.931Z,7.02
2023-02-01T16:46:44.581Z,6.95
2023-02-01T16:49:25.911Z,6.94
2023-02-01T16:51:58.640Z,7.52
2023-02-01T16:54:25.377Z,7.12
2023-02-01T16:56:51.982Z,7.37
2023-02-01T16:59:18.592Z,7.91
2023-02-01T17:01:45.155Z,7.77
2023-02-01T17:04:12.108Z,7.75
2023-02-01T17:06:40.231Z,7.42
2023-02-01T17:09:07.413Z,7.16
2023-02-01T17:11:34.303Z,7.49
2023-02-01T17:14:20.107Z,7.01
2023-02-01T17:16:51.998Z,7.52
2023-02-01T17:19:23.885Z,7.96
2023-02-01T17:21:55.038Z,8.61
2023-02-01T17:24:25.935Z,10.68
2023-02-01T17:26:53.798Z,8.05
2023-02-01T17:29:20.852Z,7.41
2023-02-01T17:31:54.882Z,7.15
2023-02-01T17:34:22.237Z,7.43
2023-02-01T17:36:49.545Z,12.87
2023-02-01T17:39:35.647Z,8.27
2023-02-01T17:42:03.608Z,7.83
2023-02-01T17:44:30.732Z,8.42
2023-02-01T17:46:59.249Z,6.59
2023-02-01T17:49:28.610Z,7.02
2023-02-01T17:51:57.017Z,7.02
2023-02-01T17:54:23.732Z,5.83
2023-02-01T17:56:50.361Z,6.36
2023-02-01T17:59:17.531Z,7.72
2023-02-01T18:01:44.131Z,7.36
2023-02-01T18:04:18.658Z,6.85
2023-02-01T18:06:45.803Z,8.68
2023-02-01T18:09:12.507Z,6.70
2023-02-01T18:11:39.249Z,6.71
2023-02-01T18:14:05.819Z,7.71
2023-02-01T18:16:34.149Z,7.74
2023-02-01T18:19:04.952Z,5.80
2023-02-01T18:21:42.377Z,5.64
2023-02-01T18:24:19.267Z,7.15
2023-02-01T18:26:45.988Z,2.98
2023-02-01T18:29:12.576Z,2.94
2023-02-01T18:31:47.306Z,4.03
2023-02-01T18:34:21.202Z,7.09
2023-02-01T18:36:51.634Z,15.19
2023-02-01T18:39:18.418Z,7.31
2023-02-01T18:41:51.756Z,6.51
2023-02-01T18:44:18.426Z,6.74
2023-02-01T18:46:45.099Z,7.69
2023-02-01T18:49:17.948Z,5.81
2023-02-01T18:51:45.034Z,5.60
2023-02-01T18:54:14.161Z,6.84
2023-02-01T18:56:40.866Z,7.74
2023-02-01T18:59:08.970Z,6.87
2023-02-01T19:01:35.640Z,5.83
2023-02-01T19:04:08.420Z,6.15
2023-02-01T19:06:40.426Z,6.18
2023-02-01T19:09:06.943Z,8.22
2023-02-01T19:11:33.532Z,5.34
2023-02-01T19:14:00.192Z,4.12
2023-02-01T19:16:26.820Z,4.31
2023-02-01T19:18:53.676Z,4.07
2023-02-01T19:21:20.361Z,5.03
2023-02-01T19:23:46.930Z,5.60
2023-02-01T19:26:16.362Z,5.36
2023-02-01T19:28:47.945Z,5.95
2023-02-01T19:31:16.072Z,6.45
2023-02-01T19:33:42.702Z,6.44
2023-02-01T19:36:10.790Z,6.87
2023-02-01T19:38:37.983Z,7.24
2023-02-01T19:41:04.870Z,7.37
2023-02-01T19:43:32.579Z,7.74
2023-02-01T19:45:59.240Z,7.57
2023-02-01T19:48:25.817Z,6.76
2023-02-01T19:50:52.353Z,7.79
2023-02-01T19:53:19.571Z,6.33
2023-02-01T19:55:46.825Z,7.00
2023-02-01T19:58:14.481Z,5.90
2023-02-01T20:00:40.811Z,6.81
2023-02-01T20:03:07.564Z,6.94
2023-02-01T20:05:34.216Z,6.66
2023-02-01T20:08:01.406Z,7.19
2023-02-01T20:10:27.970Z,7.03
2023-02-01T20:12:54.557Z,7.03
2023-02-01T20:15:24.516Z,6.61
2023-02-01T20:17:51.627Z,7.00
2023-02-01T20:20:18.437Z,6.50
2023-02-01T20:22:45.287Z,6.26
2023-02-01T20:25:12.335Z,6.06
2023-02-01T20:27:40.026Z,6.72
2023-02-01T20:30:07.197Z,6.70
2023-02-01T20:32:33.766Z,5.90
2023-02-01T20:35:00.283Z,6.12
2023-02-01T20:37:26.942Z,6.42
2023-02-01T20:39:54.432Z,5.93
2023-02-01T20:42:21.185Z,6.71
2023-02-01T20:44:47.979Z,6.24
2023-02-01T20:47:14.660Z,5.82
2023-02-01T20:49:41.401Z,6.96
2023-02-01T20:52:08.097Z,7.41
2023-02-01T20:54:34.669Z,6.96
2023-02-01T20:57:01.458Z,7.18
2023-02-01T20:59:28.081Z,6.20
2023-02-01T21:01:54.781Z,6.35
2023-02-01T21:04:27.276Z,6.31
2023-02-01T21:07:01.209Z,6.38
2023-02-01T21:09:27.775Z,6.36
2023-02-01T21:11:54.555Z,6.20
2023-02-01T21:14:21.290Z,5.57
2023-02-01T21:16:48.733Z,5.78
2023-02-01T21:19:17.140Z,6.16
2023-02-01T21:21:44.125Z,6.51
2023-02-01T21:24:10.713Z,6.11
2023-02-01T21:26:46.456Z,6.88
2023-02-01T21:29:14.776Z,6.04
2023-02-01T21:31:42.978Z,5.84
2023-02-01T21:34:09.664Z,6.46
2023-02-01T21:36:36.810Z,6.41
2023-02-01T21:39:06.717Z,6.23
2023-02-01T21:41:54.761Z,6.34
2023-02-01T21:44:22.469Z,5.59
2023-02-01T21:46:49.716Z,6.44
2023-02-01T21:49:16.660Z,6.51
2023-02-01T21:51:43.761Z,7.20
2023-02-01T21:54:11.888Z,6.79
2023-02-01T21:56:40.030Z,7.18
2023-02-01T21:59:07.568Z,7.29
2023-02-01T22:01:34.250Z,7.08
2023-02-01T22:04:00.809Z,7.19
2023-02-01T22:06:29.146Z,5.95
2023-02-01T22:08:56.082Z,6.99
2023-02-01T22:11:23.589Z,7.11
2023-02-01T22:13:50.627Z,6.89
2023-02-01T22:16:18.281Z,6.30
2023-02-01T22:18:45.769Z,6.37
2023-02-01T22:21:12.387Z,6.17
2023-02-01T22:23:39.292Z,6.12
2023-02-01T22:26:10.733Z,5.85
2023-02-01T22:28:38.776Z,4.78
2023-02-01T22:31:09.477Z,4.22
2023-02-01T22:33:36.971Z,4.61
2023-02-01T22:36:05.381Z,4.68
2023-02-01T22:38:33.767Z,5.09
2023-02-01T22:41:04.192Z,4.90
2023-02-01T22:43:31.225Z,5.16
2023-02-01T22:46:02.411Z,5.59
2023-02-01T22:48:36.320Z,5.45
2023-02-01T22:51:04.120Z,5.76
2023-02-01T22:53:31.463Z,5.27
2023-02-01T22:56:02.775Z,5.80
2023-02-01T22:58:29.593Z,6.25
2023-02-01T23:00:56.363Z,6.26
2023-02-01T23:03:22.933Z,6.30
2023-02-01T23:05:49.534Z,5.50
2023-02-01T23:08:16.032Z,5.82
2023-02-01T23:10:42.615Z,5.65
2023-02-01T23:13:09.305Z,6.17
2023-02-01T23:15:39.475Z,6.10
2023-02-01T23:18:06.120Z,6.06
2023-02-01T23:20:32.798Z,6.17
2023-02-01T23:22:59.319Z,5.77
2023-02-01T23:25:26.170Z,6.33
2023-02-01T23:27:52.863Z,6.95
2023-02-01T23:30:19.535Z,6.48
2023-02-01T23:32:46.080Z,7.17
2023-02-01T23:35:12.692Z,6.73
2023-02-01T23:37:40.767Z,6.56
2023-02-01T23:40:08.223Z,6.55
2023-02-01T23:42:35.490Z,6.47
2023-02-01T23:45:02.915Z,6.99
2023-02-01T23:47:29.573Z,7.00
2023-02-01T23:49:56.175Z,6.97
2023-02-01T23:52:22.824Z,6.84
2023-02-01T23:54:49.368Z,6.45
2023-02-01T23:57:15.899Z,6.69
2023-02-01T23:59:42.453Z,6.44
